Latest Weather Observations for Scottsdale

IDT60801

Issued at 3:35 am EST Friday 1 August 2014 (issued every 30 minutes, with the page automatically refreshed every 10 minutes)

About weather observations | Map of weather stations | Latest weather observations for TAS | Other Formats
Station Details ID: 091219 Name: SCOTTSDALE (WEST MINSTONE ROAD) Lat: -41.17 Lon: 147.49 Height: 197.5 m
Data from the previous 72 hours. | See also: Recent months at Scottsdale
Date/Time
EST
Temp
°C
App
Temp
°C
Dew
Point
Rel
Hum
%
Delta-T
°C
Wind Press
QNH
hPa
Press
MSL
hPa
Rain
since 9 am
mm
Dir
 
Spd
km/h
Gust
km/h
Spd
kts
Gust
kts
01/03:30am 5.2 0.5 0.7 73 1.8 W 15 22 8 12 992.6 - 3.6
01/03:00am 4.8 0.1 0.8 75 1.6 W 15 19 8 10 992.7 993.1 3.6
01/02:30am 4.8 -0.3 0.8 75 1.6 W 17 24 9 13 992.3 - 3.6
01/02:00am 4.9 -0.6 0.3 72 1.8 W 19 33 10 18 991.9 - 3.6
01/01:30am 4.5 0.2 0.7 76 1.5 W 13 19 7 10 991.9 - 3.6
01/01:00am 4.3 0.8 1.0 79 1.3 W 9 15 5 8 991.7 - 3.6
01/12:30am 4.9 -0.2 0.9 75 1.6 W 17 22 9 12 991.8 - 3.6
01/12:00am 4.8 0.1 0.8 75 1.6 WNW 15 22 8 12 991.1 991.5 3.6
 
Date/Time
EST
Temp
°C
App
Temp
°C
Dew
Point
Rel
Hum
%
Delta-T
°C
Wind Press
QNH
hPa
Press
MSL
hPa
Rain
since 9 am
mm
Dir
 
Spd
km/h
Gust
km/h
Spd
kts
Gust
kts
31/11:30pm 4.9 -1.2 0.6 74 1.7 W 22 35 12 19 990.8 - 3.6
31/11:00pm 5.3 -1.1 1.1 74 1.7 W 24 39 13 21 990.5 - 3.6
31/10:30pm 6.3 -1.9 0.6 67 2.3 W 33 57 18 31 989.8 - 3.6
31/10:10pm 6.8 -0.9 0.0 62 2.7 W 30 57 16 31 989.4 - 3.6
31/10:00pm 6.8 -1.1 1.2 67 2.3 W 32 46 17 25 988.9 - 3.6
31/09:30pm 7.3 0.0 -0.2 59 2.9 WNW 28 48 15 26 988.7 - 3.4
31/09:04pm 7.3 0.1 0.4 61 2.8 WNW 28 48 15 26 989.0 - 3.4
31/09:00pm 7.2 0.8 1.1 65 2.5 WNW 24 44 13 24 989.1 989.6 3.4
31/08:30pm 6.5 1.0 1.7 71 2.0 W 20 33 11 18 988.9 - 3.4
31/08:00pm 6.2 -0.4 1.9 74 1.8 WNW 26 44 14 24 988.8 - 3.4
31/07:30pm 6.7 -1.8 3.0 77 1.6 WNW 37 65 20 35 988.5 - 3.2
31/07:20pm 7.9 0.0 1.2 62 2.7 WNW 32 50 17 27 987.8 - 3.2
31/07:00pm 7.6 1.4 1.9 67 2.4 WNW 24 44 13 24 987.7 - 3.2
31/06:30pm 7.2 0.3 2.5 72 2.0 WNW 28 46 15 25 987.7 - 3.2
31/06:00pm 7.2 -0.4 2.8 73 1.9 WNW 32 61 17 33 987.5 987.9 3.2
31/05:30pm 7.0 0.5 4.5 84 1.1 WNW 28 50 15 27 987.1 - 3.0
31/05:00pm 6.3 1.7 3.8 84 1.1 WNW 17 26 9 14 986.8 - 2.4
31/04:30pm 6.3 -2.7 4.3 87 0.9 WNW 41 76 22 41 987.2 - 2.4
31/04:00pm 7.5 -1.0 5.3 86 1.0 WNW 39 69 21 37 986.4 - 1.4
31/03:54pm 7.7 1.0 5.8 88 0.9 WNW 30 69 16 37 986.0 - 1.2
31/03:53pm 7.7 1.5 6.0 89 0.8 WNW 28 46 15 25 986.0 - 1.2
31/03:30pm 8.0 1.8 6.3 89 0.8 WNW 28 43 15 23 985.8 - 1.0
31/03:00pm 8.1 3.8 6.8 91 0.6 WNW 19 33 10 18 984.8 985.2 1.0
31/02:31pm 8.4 1.4 6.7 89 0.8 W 33 57 18 31 984.7 - 0.6
31/02:30pm 8.5 1.4 6.6 88 0.9 W 33 61 18 33 984.7 - 0.6
31/02:08pm 10.2 -0.6 7.6 84 1.3 W 54 85 29 46 983.7 - 0.2
31/02:00pm 12.7 2.8 6.6 66 2.9 NW 48 80 26 43 983.2 - 0.0
31/01:30pm 12.9 3.4 6.8 66 3.0 NNW 46 76 25 41 984.0 - 0.0
31/01:00pm 13.0 3.3 7.4 69 2.8 NNW 48 91 26 49 984.7 - 0.0
31/12:30pm 13.2 3.1 7.6 69 2.8 NNW 50 80 27 43 986.0 - 0.0
31/12:00pm 12.9 2.9 7.7 70 2.6 NNW 50 74 27 40 987.1 987.4 0.0
31/11:30am 12.8 3.9 7.6 70 2.6 NNW 44 78 24 42 987.7 - 0.0
31/11:11am 12.7 2.7 7.7 71 2.5 NNW 50 85 27 46 988.3 - 0.0
31/11:00am 12.4 3.5 7.8 73 2.3 NW 44 67 24 36 988.7 - 0.0
31/10:30am 12.3 4.4 7.9 74 2.2 NNW 39 63 21 34 989.3 - 0.0
31/10:00am 12.4 4.7 8.5 77 2.0 NNW 39 65 21 35 990.2 - 0.0
31/09:30am 12.3 4.8 8.1 75 2.1 NNW 37 59 20 32 990.6 - 0.0
31/09:00am 11.7 4.3 8.5 81 1.6 NNW 37 56 20 30 991.3 991.6 16.2
31/08:30am 11.3 4.0 8.9 85 1.2 NW 37 57 20 31 992.1 - 16.0
31/08:00am 11.6 5.0 8.6 82 1.5 NW 33 56 18 30 992.1 - 14.6
31/07:30am 11.3 3.7 9.1 86 1.1 NW 39 72 21 39 992.4 - 14.2
31/07:00am 12.1 4.0 8.5 78 1.8 NW 41 61 22 33 992.8 - 14.0
31/06:30am 11.7 3.7 9.0 83 1.4 NW 41 65 22 35 992.8 - 13.8
31/06:19am 11.9 3.8 8.5 80 1.7 NNW 41 74 22 40 992.9 - 13.8
31/06:00am 11.1 5.8 9.9 92 0.6 NW 28 48 15 26 993.4 993.9 13.8
31/05:30am 11.1 4.1 10.1 94 0.5 NW 37 59 20 32 993.9 - 13.8
31/05:00am 11.8 3.4 9.5 86 1.2 NW 44 78 24 42 994.4 - 13.0
31/04:30am 11.9 3.5 9.6 86 1.2 NW 44 72 24 39 994.2 - 13.0
31/04:00am 12.0 3.2 9.5 85 1.3 NW 46 70 25 38 994.4 - 13.0
31/03:30am 11.5 3.7 9.8 89 0.9 NW 41 61 22 33 994.6 - 13.0
31/03:00am 11.1 2.8 10.1 94 0.5 NW 44 69 24 37 994.9 995.3 10.6
31/02:30am 11.0 2.8 10.4 96 0.3 NW 44 69 24 37 995.5 - 8.8
31/02:00am 11.4 3.1 10.2 92 0.6 NW 44 76 24 41 995.4 - 6.2
31/01:30am 11.2 3.6 10.4 95 0.4 NW 41 65 22 35 995.9 - 6.0
31/01:00am 11.2 3.8 9.8 91 0.7 NW 39 59 21 32 996.9 - 5.0
31/12:30am 11.2 2.7 9.4 89 0.9 NW 44 82 24 44 997.5 - 4.8
31/12:22am 11.7 3.2 9.4 86 1.2 NW 44 82 24 44 997.5 - 4.6
31/12:01am 11.8 4.8 9.9 88 1.0 NW 37 56 20 30 997.9 - 4.4
31/12:00am 11.7 4.7 10.0 89 0.9 NW 37 56 20 30 998.0 998.5 4.4
 
Date/Time
EST
Temp
°C
App
Temp
°C
Dew
Point
Rel
Hum
%
Delta-T
°C
Wind Press
QNH
hPa
Press
MSL
hPa
Rain
since 9 am
mm
Dir
 
Spd
km/h
Gust
km/h
Spd
kts
Gust
kts
30/11:31pm 11.7 5.3 9.4 86 1.2 NW 33 56 18 30 998.7 - 4.4
30/11:30pm 11.7 5.3 9.4 86 1.2 NW 33 50 18 27 998.7 - 4.4
30/11:00pm 11.5 4.5 9.8 89 0.9 NW 37 69 20 37 998.8 - 4.4
30/10:30pm 11.4 5.2 10.2 92 0.6 NW 33 54 18 29 999.0 - 4.2
30/10:00pm 11.3 4.7 9.9 91 0.7 WNW 35 61 19 33 999.4 - 3.8
30/09:30pm 11.5 4.0 10.7 95 0.4 NW 41 69 22 37 999.2 - 3.4
30/09:00pm 12.3 6.7 10.0 86 1.2 NW 30 54 16 29 999.7 1000.1 2.4
30/08:30pm 12.3 5.6 9.6 83 1.4 NW 35 57 19 31 1000.2 - 2.4
30/08:25pm 12.2 5.9 9.7 85 1.3 NW 33 57 18 31 1000.2 - 2.4
30/08:00pm 12.0 6.6 9.5 85 1.3 NW 28 44 15 24 1000.3 - 2.4
30/07:30pm 12.1 6.4 9.8 86 1.2 NW 30 52 16 28 1000.5 - 2.4
30/07:00pm 12.4 6.6 9.3 81 1.6 WNW 30 50 16 27 1000.6 - 2.4
30/06:30pm 12.3 6.5 9.6 83 1.4 WNW 30 54 16 29 1000.3 - 2.4
30/06:00pm 12.3 6.2 9.6 83 1.4 WNW 32 59 17 32 1000.0 1000.5 2.4
30/05:30pm 12.1 5.5 10.0 87 1.1 WNW 35 59 19 32 999.8 - 2.2
30/05:00pm 12.2 6.2 10.1 87 1.1 WNW 32 59 17 32 999.7 - 1.8
30/04:30pm 12.4 7.0 9.5 82 1.5 WNW 28 48 15 26 999.6 - 1.8
30/04:00pm 12.4 5.2 9.3 81 1.6 WNW 37 63 20 34 999.5 - 1.8
30/03:30pm 12.1 5.0 9.6 85 1.3 WNW 37 65 20 35 999.8 - 1.8
30/03:00pm 11.8 4.1 10.1 89 0.9 NW 41 76 22 41 999.6 1000.0 1.8
30/02:58pm 11.8 4.1 10.1 89 0.9 NW 41 76 22 41 999.6 - 1.8
30/02:30pm 11.8 5.7 9.9 88 1.0 NW 32 54 17 29 999.7 - 1.4
30/02:04pm 12.1 6.2 9.0 81 1.6 WNW 30 52 16 28 1000.1 - 1.4
30/02:00pm 12.0 6.2 9.3 83 1.4 WNW 30 44 16 24 1000.2 - 1.4
30/01:30pm 11.4 6.1 9.8 90 0.8 WNW 28 50 15 27 1000.7 - 1.4
30/01:00pm 10.9 4.5 9.3 90 0.8 WNW 33 54 18 29 1001.1 - 0.6
30/12:43pm 11.5 5.0 8.9 84 1.3 WNW 33 69 18 37 1001.2 - 0.2
30/12:32pm 12.2 6.6 8.9 80 1.7 WNW 28 46 15 25 1001.3 - 0.0
30/12:30pm 12.3 5.9 8.5 77 1.9 WNW 32 46 17 25 1001.3 - 0.0
30/12:00pm 12.7 6.0 8.3 74 2.2 WNW 33 59 18 32 1001.6 1002.2 0.0
30/11:30am 12.2 5.5 8.2 76 2.0 WNW 33 57 18 31 1002.2 - 0.0
30/11:00am 11.7 5.9 7.9 77 1.9 WNW 28 65 15 35 1002.5 - 0.0
30/10:30am 11.5 4.7 7.9 78 1.8 WNW 33 56 18 30 1002.7 - 0.0
30/10:00am 11.4 5.7 8.4 82 1.5 WNW 28 52 15 28 1002.7 - 0.0
30/09:30am 10.9 4.5 8.7 86 1.1 NW 32 54 17 29 1002.7 - 0.0
30/09:22am 10.7 4.8 8.9 89 0.9 NW 30 54 16 29 1002.6 - 0.0
30/09:00am 10.1 4.6 7.6 84 1.2 NW 26 46 14 25 1002.8 1003.2 21.2
30/08:30am 10.2 5.7 6.2 76 1.9 NW 19 30 10 16 1003.1 - 21.2
30/08:00am 9.8 5.0 5.7 75 1.9 WNW 20 28 11 15 1002.8 - 21.2
30/07:30am 9.4 4.6 5.7 78 1.7 WNW 20 35 11 19 1002.7 - 21.2
30/07:00am 9.5 4.5 4.6 71 2.2 WNW 20 33 11 18 1003.0 - 21.2
30/06:30am 9.4 4.5 4.3 70 2.3 WNW 19 30 10 16 1002.7 - 21.2
30/06:00am 9.0 3.9 4.1 71 2.2 WNW 20 30 11 16 1002.4 1002.8 21.2
30/05:30am 9.0 3.0 3.3 67 2.5 WNW 24 44 13 24 1001.7 - 21.2
30/05:00am 9.3 3.8 1.7 59 3.2 WNW 20 32 11 17 1001.5 - 21.2
30/04:30am 9.7 3.5 2.3 60 3.2 W 24 41 13 22 1000.9 - 21.2
30/04:01am 10.0 2.8 2.9 61 3.1 W 30 63 16 34 1000.6 - 21.2
30/04:00am 9.7 2.6 3.4 65 2.8 W 30 46 16 25 1000.6 - 21.2
30/03:50am 9.9 3.1 3.3 63 2.9 WNW 28 48 15 26 1000.4 - 21.2
30/03:30am 10.0 3.0 4.0 66 2.7 WNW 30 46 16 25 1000.0 - 21.2
30/03:01am 10.1 3.5 4.1 66 2.7 WNW 28 48 15 26 999.5 - 21.2
30/03:00am 10.1 3.5 4.1 66 2.7 WNW 28 39 15 21 999.6 999.9 21.2
30/02:41am 10.3 3.6 3.8 64 2.9 WNW 28 48 15 26 999.4 - 21.2
30/02:30am 10.2 4.3 4.0 65 2.8 WNW 24 39 13 21 999.1 - 21.2
30/02:10am 10.4 3.5 4.5 67 2.7 WNW 30 48 16 26 998.9 - 21.2
30/02:00am 10.3 3.8 4.9 69 2.5 WNW 28 44 15 24 998.7 - 21.2
30/01:30am 10.4 3.0 5.0 69 2.5 W 33 56 18 30 998.4 - 21.2
30/01:03am 10.6 3.1 4.7 67 2.7 W 33 56 18 30 997.7 - 21.2
30/01:00am 10.5 3.7 5.1 69 2.5 W 30 46 16 25 997.8 - 21.2
30/12:34am 10.4 4.2 6.2 75 2.0 WNW 28 52 15 28 997.4 - 21.2
30/12:30am 10.3 4.6 6.5 77 1.8 W 26 46 14 25 997.5 - 21.2
30/12:00am 10.1 3.9 6.1 76 1.9 W 28 44 15 24 997.1 997.5 21.2
 
Date/Time
EST
Temp
°C
App
Temp
°C
Dew
Point
Rel
Hum
%
Delta-T
°C
Wind Press
QNH
hPa
Press
MSL
hPa
Rain
since 9 am
mm
Dir
 
Spd
km/h
Gust
km/h
Spd
kts
Gust
kts
29/11:30pm 10.0 3.2 6.7 80 1.6 WNW 32 52 17 28 997.1 - 21.2
29/11:00pm 10.2 3.1 6.6 78 1.7 W 33 57 18 31 996.9 - 21.2
29/10:30pm 10.3 3.1 6.1 75 2.0 W 33 63 18 34 996.5 - 21.2
29/10:00pm 9.9 2.4 6.5 79 1.6 W 35 57 19 31 996.6 - 21.2
29/09:30pm 10.2 2.3 7.8 85 1.2 W 39 61 21 33 995.9 - 21.2
29/09:00pm 11.4 4.0 6.6 72 2.3 WNW 35 56 19 30 995.2 995.5 20.6
29/08:34pm 11.5 4.3 7.7 77 1.9 WNW 35 57 19 31 994.7 - 20.6
29/08:30pm 11.6 4.4 7.5 76 2.0 W 35 52 19 28 994.7 - 20.6
29/08:00pm 11.9 4.6 7.2 73 2.3 WNW 35 54 19 29 994.6 - 20.6
29/07:30pm 11.8 3.9 6.4 69 2.6 W 37 80 20 43 994.1 - 20.6
29/07:00pm 11.8 2.7 8.6 81 1.6 W 46 96 25 52 993.4 - 20.6
29/06:30pm 10.8 2.7 10.6 99 0.1 WNW 44 80 24 43 993.3 - 20.6
29/06:00pm 10.9 1.7 9.5 91 0.7 WNW 48 76 26 41 992.6 992.8 19.4
29/05:30pm 11.9 3.3 10.2 89 0.9 NW 46 89 25 48 992.6 - 14.0
29/05:00pm 12.1 4.3 9.8 86 1.2 NW 41 89 22 48 992.8 - 14.0
29/04:56pm 12.2 0.5 9.5 83 1.4 NW 61 89 33 48 992.6 - 14.0
29/04:40pm 11.5 4.0 10.7 95 0.4 NW 41 80 22 43 992.7 - 14.0
29/04:30pm 11.6 4.8 10.7 94 0.5 NW 37 56 20 30 993.0 - 13.8
29/04:00pm 11.5 4.8 9.8 89 0.9 WNW 35 54 19 29 993.7 - 13.6
29/03:34pm 11.0 5.7 9.8 92 0.6 WNW 28 46 15 25 994.2 - 13.4
29/03:30pm 10.8 5.8 9.6 92 0.6 WNW 26 43 14 23 994.2 - 13.4
29/03:00pm 10.7 5.4 8.3 85 1.2 WNW 26 41 14 22 994.7 995.1 13.2
29/02:30pm 10.8 5.7 7.8 82 1.5 WNW 24 37 13 20 995.0 - 13.2
29/02:00pm 10.2 5.0 7.3 82 1.4 W 24 32 13 17 995.2 - 13.2
29/01:30pm 9.8 4.7 7.8 87 1.0 W 24 37 13 20 995.2 - 13.2
29/01:12pm 10.0 2.7 8.6 91 0.7 W 37 61 20 33 995.1 - 13.2
29/01:00pm 11.2 5.0 10.0 92 0.6 NW 33 52 18 28 994.0 - 9.4
29/12:30pm 10.8 3.7 9.4 91 0.7 WNW 37 59 20 32 995.2 - 8.6
29/12:00pm 10.8 3.7 9.6 92 0.6 NW 37 69 20 37 995.6 996.0 7.4
29/11:30am 9.1 0.7 7.4 89 0.8 WNW 41 70 22 38 996.3 - 4.4
29/11:00am 12.1 5.1 10.0 87 1.1 NW 37 61 20 33 996.7 - 0.8
29/10:30am 12.0 3.9 9.9 87 1.1 NW 43 83 23 45 997.1 - 0.6
29/10:00am 11.6 3.9 10.1 90 0.8 NW 41 80 22 43 997.1 - 0.6
29/09:30am 11.3 4.0 10.1 92 0.6 NW 39 63 21 34 997.1 - 0.4
29/09:00am 11.5 2.3 9.6 88 1.0 NNW 48 80 26 43 997.3 997.6 26.0
29/08:30am 11.0 3.6 10.0 93 0.5 NW 39 65 21 35 997.6 - 26.0
29/08:00am 10.9 3.1 9.9 93 0.5 NNW 41 69 22 37 997.8 - 25.0
29/07:43am 10.8 3.0 9.8 93 0.5 NNW 41 80 22 43 997.6 - 25.0
29/07:30am 10.5 4.5 10.1 97 0.2 NNW 32 54 17 29 998.0 - 25.0
29/07:00am 10.4 2.3 10.0 97 0.2 NNW 43 72 23 39 998.7 - 22.2
29/06:51am 10.8 3.3 9.6 92 0.6 NNW 39 72 21 39 998.7 - 21.0
29/06:30am 10.7 4.9 9.5 92 0.6 NNW 30 50 16 27 999.0 - 20.4
29/06:00am 10.6 3.1 9.6 93 0.5 NNW 39 61 21 33 999.4 999.8 19.6
29/05:30am 10.6 3.9 9.6 93 0.5 NNW 35 57 19 31 999.8 - 19.0
29/05:00am 10.6 4.5 9.8 95 0.4 NNW 32 56 17 30 1000.3 - 17.2
29/04:44am 10.6 5.2 9.6 93 0.5 NNW 28 48 15 26 1000.5 - 16.0
29/04:30am 10.5 4.8 9.7 95 0.4 NNW 30 41 16 22 1000.9 - 15.6
29/04:02am 10.7 5.2 9.3 91 0.7 NNW 28 46 15 25 1001.3 - 15.4
29/04:00am 10.7 5.6 9.3 91 0.7 NNW 26 43 14 23 1001.3 - 15.4

Other Formats:

Comma delimited format used in spreadsheet applications
http://www.bom.gov.au/fwo/IDT60801/IDT60801.94972.axf

JavaScript Object Notation format (JSON) in row-major order
http://www.bom.gov.au/fwo/IDT60801/IDT60801.94972.json